Strona główna
METAR-TAF:

METAR-TAF

Lotnisko :

Port lotniczy Newcastle

Newcastle, Anglia

Szerokość geograficzna: 55-02N, Długość geograficzna: 001-42W, wysokość: 81 m

Aktualna obserwacja pogody

Raport powstał 41 minut temu, godzina 16:20 UTC
Wiatr 4 kt od zachód
Temperatura 6°C
Wilgotność 81%
Ciśnienie 1012 hPa
Widzialność 10 km lub więcej

METAR: EGNT 251620Z AUTO 28004KT 9999 BKN017/// 06/03 Q1012

czas: 17:01 (17:01 UTC)

Prognoza

Raport powstał 4 godziny i 42 minut temu, godzina 12:19 UTC
Prognoza ważna od 25 godzina 12 UTC do 26 godzina 12 UTC
Wiatr 6 kt od zachód
Widzialność 10 km lub więcej
Rozproszone chmury na wysokości 2500 ft
Przejściowo
od 25 godzina 12 UTC do 25 godzina 14 UTC
Przerywane chmury na wysokości 1200 ft
Przejściowo
od 26 godzina 02 UTC do 26 godzina 10 UTC
Widzialność: 6000 m
Prawdopodobieństwo 30% :
Przejściowo
od 26 godzina 03 UTC do 26 godzina 08 UTC
Widzialność: 4000 m
zamglenie

TAF: EGNT 251219Z 2512/2612 27006KT 9999 SCT025 TEMPO 2512/2514 BKN012 TEMPO 2602/2610 6000 PROB30 TEMPO 2603/2608 4000 BR

Obserwacja i prognoza pogody dla ponad 4000 lotnisk (raport METAR i TAF).

Dostępne stacje oznaczono żółtymi i czerwonymi punktami na mapie.

Najedź kursorem aby zobaczyć nazwę stacji.

Kliknij aby zobaczyć obserwacje i prognozy pogody.

Aby zmienić mapę: kliknij na zielony przycisk z czarnym krzyżykiem, aby powiększyć; na zielony przycisk z myślnikiem, aby pomniejszyć; na zielone strzałki, aby przejść do map sąsiednich.


METAR-TAF: